Have a Safe July 4th! 

Flight Track Log - Related Links

Times and Time Zones

All times are in EDT time to prevent confusion due to time zone crossing. See the N137TK flight status page for this flight to view local times or setup timezone preferences in your user account.

Time Position Orientation Groundspeed Altitude Reporting Facility
EDT Latitude Longitude Course Direction KTS MPH feet Rate Location/Type
Tue 11:01:32 PM 42.6656 -83.3956 98° East 140 161 1,600  Level Cleveland Center
Tue 11:02:09 PM 42.6622 -83.3644 98° East 142 163 2,900 1,979 Climbing Cleveland Center
Tue 11:03:09 PM 42.6361 -83.3208 129° Southeast 152 175 4,800 1,930 Climbing Cleveland Center
Tue 11:04:04 PM 42.6100 -83.2775 129° Southeast 158 182 6,600 1,983 Climbing Cleveland Center
Tue 11:05:04 PM 42.5839 -83.2311 127° Southeast 158 182 8,600 1,902 Climbing Cleveland Center
Tue 11:06:07 PM 42.5406 -83.2181 167° South 156 180 10,500 1,854 Climbing Cleveland Center
Tue 11:07:07 PM 42.4986 -83.2219 184° South 156 180 12,400 1,650 Climbing Cleveland Center
Tue 11:08:07 PM 42.4506 -83.2311 188° South 161 185 13,800 1,350 Climbing Cleveland Center
Tue 11:09:07 PM 42.4067 -83.2350 184° South 177 204 15,100 1,500 Climbing Cleveland Center
Tue 11:10:07 PM 42.3586 -83.2414 186° South 188 216 16,800 1,400 Climbing Cleveland Center
Tue 11:11:07 PM 42.3064 -83.2506 187° South 174 200 17,900 1,150 Climbing Cleveland Center
Tue 11:12:07 PM 42.2622 -83.2569 186° South 174 200 19,100 1,050 Climbing Cleveland Center
Tue 11:13:07 PM 42.2142 -83.2633 186° South 174 200 20,000 450 Climbing Cleveland Center
Tue 11:14:07 PM 42.1597 -83.2722 187° South 189 217 20,000  Level Cleveland Center
Tue 11:15:07 PM 42.0992 -83.2808 186° South 214 246 20,000  Level Cleveland Center
Tue 11:16:07 PM 42.0400 -83.3147 203° Southwest 226 260 20,000  Level Cleveland Center
Tue 11:17:07 PM 41.9844 -83.3656 214° Southwest 235 270 20,000  Level Cleveland Center
Tue 11:18:07 PM 41.9292 -83.4106 211° Southwest 242 278 20,000  Level Cleveland Center
Tue 11:19:07 PM 41.8781 -83.4528 212° Southwest 242 278 20,000  Level Cleveland Center
Tue 11:20:07 PM 41.8247 -83.5036 215° Southwest 242 278 20,000  Level Cleveland Center
Tue 11:21:07 PM 41.7694 -83.5483 211° Southwest 242 278 20,000  Level Cleveland Center
Tue 11:22:07 PM 41.7100 -83.5844 204° Southwest 242 278 20,000  Level Cleveland Center
Tue 11:23:07 PM 41.6450 -83.6008 191° South 242 278 20,000  Level Cleveland Center
Tue 11:24:07 PM 41.5808 -83.5869 171° South 234 269 20,000  Level Cleveland Center
Tue 11:25:07 PM 41.5122 -83.5725 171° South 234 269 20,000  Level Cleveland Center
Tue 11:26:07 PM 41.4481 -83.5611 172° South 239 275 20,000  Level Cleveland Center
Tue 11:27:07 PM 41.3794 -83.5469 171° South 239 275 20,000  Level Cleveland Center
Tue 11:28:07 PM 41.3131 -83.5383 174° South 244 281 20,000  Level Cleveland Center
Tue 11:29:07 PM 41.2447 -83.5217 170° South 244 281 20,000  Level Cleveland Center
Tue 11:31:32 PM 41.0847 -83.4928 172° South 246 283 20,000  Level Indianapolis Center
Tue 11:32:33 PM 41.0178 -83.4800 172° South 242 278 20,000  Level Indianapolis Center
Tue 11:33:34 PM 40.9494 -83.4678 172° South 245 282 20,000  Level Indianapolis Center
Tue 11:34:35 PM 40.8814 -83.4561 173° South 245 282 20,000  Level Indianapolis Center
Tue 11:35:36 PM 40.8036 -83.4414 172° South 242 278 20,000  Level Indianapolis Center
Tue 11:36:38 PM 40.7347 -83.4314 174° South 246 283 20,000  Level Indianapolis Center
Tue 11:37:38 PM 40.6669 -83.4186 172° South 245 282 20,000  Level Indianapolis Center
Tue 11:38:39 PM 40.5981 -83.4050 171° South 246 283 20,000  Level Indianapolis Center
Tue 11:39:40 PM 40.5283 -83.3936 173° South 249 287 20,000  Level Indianapolis Center
Tue 11:40:41 PM 40.4589 -83.3808 172° South 249 287 20,000  Level Indianapolis Center
Tue 11:41:42 PM 40.3900 -83.3683 172° South 249 287 20,000  Level Indianapolis Center
Tue 11:42:43 PM 40.3206 -83.3558 172° South 249 287 20,000  Level Indianapolis Center
Tue 11:43:44 PM 40.2514 -83.3439 172° South 249 287 20,000  Level Indianapolis Center
Tue 11:44:45 PM 40.1831 -83.3306 172° South 246 283 20,000  Level Indianapolis Center
Tue 11:45:46 PM 40.1136 -83.3189 173° South 247 284 20,000  Level Indianapolis Center
Tue 11:46:48 PM 40.0442 -83.3067 172° South 249 287 20,000  Level Indianapolis Center
Tue 11:47:49 PM 39.9756 -83.2933 172° South 246 283 20,000  Level Indianapolis Center
Tue 11:48:50 PM 39.9056 -83.2819 173° South 248 285 20,000  Level Indianapolis Center
Tue 11:49:51 PM 39.8364 -83.2689 172° South 247 284 20,000  Level Indianapolis Center
Tue 11:50:52 PM 39.7664 -83.2572 173° South 248 285 20,000  Level Indianapolis Center
Tue 11:51:53 PM 39.6969 -83.2456 173° South 248 285 20,000  Level Indianapolis Center
Tue 11:52:54 PM 39.6269 -83.2331 172° South 251 289 20,000  Level Indianapolis Center
Tue 11:53:54 PM 39.5572 -83.2211 172° South 249 287 20,000  Level Indianapolis Center
Tue 11:54:55 PM 39.4881 -83.2092 172° South 249 287 20,000  Level Indianapolis Center
Tue 11:55:56 PM 39.4200 -83.1972 172° South 245 282 20,000  Level Indianapolis Center
Tue 11:56:57 PM 39.3514 -83.1847 172° South 246 283 20,000  Level Indianapolis Center
Tue 11:57:58 PM 39.2825 -83.1739 173° South 246 283 20,000  Level Indianapolis Center
Tue 11:58:59 PM 39.2133 -83.1608 172° South 249 287 20,000  Level Indianapolis Center
Wed 12:00:00 AM 39.1406 -83.1494 173° South 244 281 20,000  Level Indianapolis Center
Wed 12:01:01 AM 39.0717 -83.1369 172° South 248 285 20,000  Level Indianapolis Center
Wed 12:02:01 AM 39.0031 -83.1244 172° South 250 288 20,000  Level Indianapolis Center
Wed 12:03:02 AM 38.9336 -83.1131 173° South 250 288 20,000  Level Indianapolis Center
Wed 12:04:03 AM 38.8642 -83.1017 173° South 251 289 20,000  Level Indianapolis Center
Wed 12:05:04 AM 38.7958 -83.0892 172° South 250 288 20,000  Level Indianapolis Center
Wed 12:06:05 AM 38.7267 -83.0769 172° South 251 289 20,000  Level Indianapolis Center
Wed 12:07:06 AM 38.6586 -83.0658 173° South 247 284 20,000  Level Indianapolis Center
Wed 12:08:06 AM 38.5850 -83.0533 172° South 248 285 20,000  Level Indianapolis Center
Wed 12:09:07 AM 38.5164 -83.0414 172° South 247 284 20,000  Level Indianapolis Center
Wed 12:10:08 AM 38.4481 -83.0300 173° South 248 285 20,000  Level Indianapolis Center
Wed 12:11:09 AM 38.3803 -83.0194 173° South 246 283 20,000  Level Indianapolis Center
Wed 12:12:10 AM 38.3117 -83.0069 172° South 248 285 20,000  Level Indianapolis Center
Wed 12:13:10 AM 38.2439 -82.9953 172° South 246 283 20,000  Level Indianapolis Center
Wed 12:14:11 AM 38.1756 -82.9836 172° South 247 284 20,000  Level Indianapolis Center
Wed 12:15:12 AM 38.1075 -82.9736 173° South 247 284 20,000  Level Indianapolis Center
Wed 12:16:13 AM 38.0394 -82.9617 172° South 246 283 20,000  Level Indianapolis Center
Wed 12:17:14 AM 37.9719 -82.9514 173° South 244 281 20,000  Level Indianapolis Center
Wed 12:18:14 AM 37.9042 -82.9397 172° South 244 281 20,000  Level Indianapolis Center
Wed 12:19:15 AM 37.8242 -82.9253 172° South 248 285 20,000  Level Indianapolis Center
Wed 12:20:16 AM 37.7561 -82.9147 173° South 246 283 20,000  Level Indianapolis Center
Wed 12:21:16 AM 37.6889 -82.9022 172° South 245 282 20,000  Level Indianapolis Center
Wed 12:22:17 AM 37.6206 -82.8919 173° South 246 283 20,000  Level Indianapolis Center
Wed 12:23:18 AM 37.5519 -82.8811 173° South 247 284 20,000  Level Indianapolis Center
Wed 12:24:19 AM 37.4844 -82.8700 173° South 245 282 20,000  Level Indianapolis Center
Wed 12:25:19 AM 37.4156 -82.8594 173° South 247 284 20,000  Level Indianapolis Center
Wed 12:26:20 AM 37.3472 -82.8475 172° South 247 284 20,000  Level Indianapolis Center
Wed 12:27:20 AM 37.2792 -82.8367 173° South 246 283 20,000  Level Indianapolis Center
Wed 12:28:21 AM 37.2106 -82.8250 172° South 247 284 20,000  Level Indianapolis Center
Wed 12:29:22 AM 37.1408 -82.8136 173° South 250 288 20,000  Level Indianapolis Center
Wed 12:30:22 AM 37.0719 -82.8022 172° South 249 287 20,000  Level Indianapolis Center
Wed 12:31:23 AM 37.0025 -82.7903 172° South 249 287 20,000  Level Indianapolis Center
Wed 12:32:23 AM 36.9314 -82.7789 173° South 251 289 20,000  Level Indianapolis Center
Wed 12:33:24 AM 36.8600 -82.7669 172° South 253 291 20,000  Level Indianapolis Center
Wed 12:34:25 AM 36.7892 -82.7558 173° South 254 292 20,000  Level Indianapolis Center
Wed 12:36:00 AM 36.6858 -82.7409 173° South  Level FlightAware Approximate
Wed 12:43:00 AM 36.2299 -82.6661 172° South  Level FlightAware Approximate
Wed 12:44:00 AM 36.1648 -82.6552 172° South  Level FlightAware Approximate
Wed 12:45:00 AM 36.0997 -82.6458 169° South  Level FlightAware Approximate
Wed 12:46:00 AM 36.0353 -82.6296 169° South  Level FlightAware Approximate
Wed 12:47:00 AM 35.9707 -82.6167 180° South  Level FlightAware Approximate
Wed 12:48:00 AM 35.9054 -82.6092 172° South  Level FlightAware Approximate
Wed 12:49:00 AM 35.8403 -82.5984 172° South  Level FlightAware Approximate
Wed 12:50:00 AM 35.7752 -82.5875 172° South  Level FlightAware Approximate
Wed 12:51:00 AM 35.7103 -82.5754 171° South  Level FlightAware Approximate
Wed 12:52:00 AM 35.6454 -82.5624 171° South  Level FlightAware Approximate
Wed 12:53:00 AM 35.5805 -82.5500 180° South  Level FlightAware Approximate
Wed 12:54:00 AM 35.5148 -82.5500 180° South  Level FlightAware Approximate
Wed 12:55:00 AM 35.4502 -82.5375 168° South  Level FlightAware Approximate
Wed 12:56:00 AM 35.4333 -82.5333 168° South  Level FlightAware Approximate
Wed 12:57:00 AM 35.4362 -82.5418 168° South  Level Estimated
Wed 12:58:00 AM 35.4362 -82.5418 168° South  Level Estimated
Wed 12:59:00 AM 35.4362 -82.5418 168° South  Level Estimated
Wed 01:00:00 AM 35.4362 -82.5418 168° South  Level Estimated
Wed 01:01:00 AM 35.4362 -82.5418 168° South  Level Estimated
Wed 01:02:00 AM 35.4362 -82.5418 168° South  Level Estimated
Wed 01:03:00 AM 35.4362 -82.5418 168° South  Level Estimated
Wed 01:04:00 AM 35.4362 -82.5418 168° South  Level Estimated
Wed 01:05:00 AM 35.4362 -82.5418 168° South  Level Estimated
Wed 01:06:00 AM 35.4362 -82.5418 168° South  Level Estimated
Wed 01:07:00 AM 35.4362 -82.5418 168° South  Level Estimated
Wed 01:08:00 AM 35.4362 -82.5418 168° South  Level Estimated
Wed 01:09:00 AM 35.4362 -82.5418 168° South  Level Estimated
Wed 01:10:00 AM 35.4362 -82.5418 168° South  Level Estimated
Wed 01:11:00 AM 35.4362 -82.5418 168° South  Level Estimated

Login

Don't have an account? Register now (free) for customized features, flight alerts, and more!